Nearby METAR Reports

 

KDVT - Phoenix/Deer Vly, Arizona, USA
Distance from station: SW 14mi, 22km
Updated: 2023-02-02 10:53
Clear
Clear
 Wind from calm
Wind: Calm
Temperature: 57°F , 14°C
Dew Point: 25°F , -4°C
Humidity: 29%
Barometer: 30.37 inHg , 1028.4 hPa
Clouds: Clear
Visibility: 10 miles , 16 km
2023/02/02 17:53 KDVT 021753Z 00000KT 10SM CLR 14/M04 A3037 RMK AO2 SLP279 T01391044 10144 20033 51020
KSDL - Scottsdale, Arizona, USA
Distance from station: S 15mi, 23km
Updated: 2023-02-02 10:53
Clear
Clear
 Wind from calm
Wind: Calm
Temperature: 57°F , 14°C
Dew Point: 25°F , -4°C
Humidity: 29%
Barometer: 30.38 inHg , 1028.8 hPa
Clouds: Clear
Visibility: 10 miles , 16 km
2023/02/02 17:53 KSDL 021753Z 00000KT 10SM CLR 14/M04 A3038 RMK AO2 SLP279 T01441044 10144 20044 51020
KFFZ - Mesa/Falcon Fld, Arizona, USA
Distance from station: SSE 27mi, 44km
Updated: 2023-02-02 10:54
Clear
Clear
 Wind from NNE
Wind: NNE 9 mph , 15 km/h
Temperature: 59°F , 15°C
Dew Point: 23°F , -5°C
Humidity: 25%
Barometer: 30.37 inHg , 1028.4 hPa
Clouds: Clear
Visibility: 10 miles , 16 km
2023/02/02 17:54 KFFZ 021754Z 02008KT 10SM CLR 15/M05 A3037 RMK AO2 SLP274 T01501050 10150 20067 51019
 
KPHX - Phoenix/Sky Hrbr, Arizona, USA
Distance from station: SSW 28mi, 45km
Updated: 2023-02-02 10:51
Clear
Clear
 Wind from E
Wind: E 12 mph , 19 km/h
Temperature: 61°F , 16°C
Dew Point: 19°F , -7°C
Humidity: 20%
Barometer: 30.36 inHg , 1028.1 hPa
Clouds: Clear
Visibility: 10 miles , 16 km
2023/02/02 17:51 KPHX 021751Z 08010KT 10SM CLR 16/M07 A3036 RMK AO2 SLP274 T01561067 10156 20061 51018
KLUF - Luke Afb/Glendal, Arizona, USA
Distance from station: SW 34mi, 55km
Updated: 2023-02-02 10:55
Clear
Clear
 Wind from calm
Wind: Calm
Temperature: 57°F , 14°C
Dew Point: 25°F , -4°C
Humidity: 29%
Barometer: 30.37 inHg , 1028.4 hPa
Clouds: Clear
Visibility: 10 miles , 16 km
2023/02/02 17:55 KLUF 021755Z AUTO 00000KT 10SM CLR 14/M04 A3037 RMK AO2 SLP284 T01361037 10136 20037 51020 $
KGYR - Goodyear Municip, Arizona, USA
Distance from station: SW 39mi, 63km
Updated: 2023-02-02 10:47
NOT Current
Clear
Clear
 Wind from NE
Wind: NE 6 mph , 9 km/h
Temperature: 57°F , 14°C
Dew Point: 28°F , -2°C
Humidity: 33%
Barometer: 30.39 inHg , 1029.1 hPa
Clouds: Clear
Visibility: 10 miles , 16 km
2023/02/02 17:47 KGYR 021747Z 05005KT 10SM SKC 14/M02 A3039
 
KIWA - Chandler/Mesa, Arizona, USA
Distance from station: SSE 39mi, 63km
Updated: 2023-02-02 09:50
NOT Current
Clear
Clear
 Wind from calm
Wind: Calm
Temperature: 48°F , 9°C
Dew Point: 34°F , 1°C
Humidity: 58%
Barometer: 30.38 inHg , 1028.8 hPa
Clouds: Clear
Visibility: 10 miles , 16 km
2023/02/02 16:50 KIWA 021650Z 00000KT 10SM CLR 09/01 A3038
KPAN - Payson, Arizona, USA
Distance from station: NE 44mi, 70km
Updated: 2023-02-02 11:15
Clear
Clear
 Wind from N
Wind: N 5 mph , 7 km/h
Temperature: 48°F , 9°C
Wind Chill: 46°F , 8°C
Dew Point: 10°F , -12°C
Humidity: 21%
Barometer: 30.40 inHg , 1029.5 hPa
Clouds: Clear
Visibility: 10 miles , 16 km
2023/02/02 18:15 KPAN 021815Z AUTO 36004KT 10SM CLR 09/M12 A3040 RMK AO2 PWINO TSNO
KBXK - Buckeye, Arizona, USA
Distance from station: WSW 53mi, 86km
Updated: 2023-02-02 11:15
Clear
Clear
 Wind from E
Wind: E 12 mph , 19 km/h
Temperature: 59°F , 15°C
Dew Point: 23°F , -5°C
Humidity: 25%
Barometer: 30.39 inHg , 1029.1 hPa
Clouds: Clear
Visibility: 10 miles , 16 km
2023/02/02 18:15 KBXK 021815Z AUTO 09010KT 10SM CLR 15/M05 A3039 RMK A01
 
KA39 - Maricopa Ak-Chin, Arizona, USA
Distance from station: S 58mi, 94km
Updated: 2023-02-02 10:55
Partly cloudy
Partly cloudy
 Wind from calm
Wind: Calm
Temperature: 54°F , 12°C
Dew Point: 36°F , 2°C
Humidity: 51%
Barometer: 30.42 inHg , 1030.1 hPa
Clouds: Partly cloudy
Visibility: 10 miles , 16 km
Cloud details: Partly cloudy 11000 ft
2023/02/02 17:55 KA39 021755Z AUTO 00000KT 10SM SCT110 12/02 A3042 RMK AO2
KPRC - Prescott, Arizona, USA
Distance from station: NNW 64mi, 103km
Updated: 2023-02-02 10:53
Clear
Clear
 Wind from N
Wind: N 3 mph , 6 km/h
Temperature: 43°F , 6°C
Dew Point: 14°F , -10°C
Humidity: 31%
Barometer: 30.41 inHg , 1029.8 hPa
Clouds: Clear
Visibility: 10 miles , 16 km
2023/02/02 17:53 KPRC 021753Z 01003KT 10SM CLR 06/M10 A3041 RMK AO2 SLP291 T00561100 10056 21067 51017
KSEZ - Sedona, Arizona, USA
Distance from station: N 71mi, 114km
Updated: 2023-02-02 11:15
Clear
Clear
 Wind from SW
Wind: SW 3 mph , 6 km/h
Temperature: 46°F , 8°C
Dew Point: 18°F , -8°C
Humidity: 32%
Barometer: 30.41 inHg , 1029.8 hPa
Clouds: Clear
Visibility: 10 miles , 16 km
2023/02/02 18:15 KSEZ 021815Z AUTO 22003KT 10SM CLR 08/M08 A3041 RMK AO2
 
KFLG - Flagstaff, Arizona, USA
Distance from station: N 91mi, 147km
Updated: 2023-02-02 10:57
Clear
Clear
 Wind from E
Wind: E 6 mph , 9 km/h
Temperature: 37°F , 3°C
Wind Chill: 32°F , 0°C
Dew Point: 10°F , -12°C
Humidity: 33%
Barometer: 30.42 inHg , 1030.1 hPa
Clouds: Clear
Visibility: 10 miles , 16 km
2023/02/02 17:57 KFLG 021757Z AUTO 09005KT 10SM CLR 03/M12 A3042 RMK AO2 SLP317 I6000 T00331117 10033 21178 51018